Time;durP1;ratioP1;P1;durP2;ratioP2;P2;SDS_P1;SDS_P2;PMS_P1;PMS_P2;Temp;Humidity;BMP_temperature;BMP_pressure;BME280_temperature;BME280_humidity;BME280_pressure;Samples;Min_cycle;Max_cycle;Signal;HPM_P1;HPM_P2
2023/03/20 00:00:29;;;;;;;7.95;2.85;;;9.00;99.90;;;;;;5011192;28;20041;-74
2023/03/20 00:02:55;;;;;;;5.22;2.85;;;9.00;99.90;;;;;;5004599;28;20690;-74
2023/03/20 00:05:23;;;;;;;7.68;2.05;;;9.00;99.90;;;;;;5010400;28;20038;-73
2023/03/20 00:07:49;;;;;;;7.97;2.35;;;9.00;99.90;;;;;;5004085;28;20108;-74
2023/03/20 00:10:17;;;;;;;4.88;2.30;;;9.00;99.90;;;;;;5002103;28;20133;-74
2023/03/20 00:12:43;;;;;;;7.28;2.55;;;9.00;99.90;;;;;;5000966;28;20750;-72
2023/03/20 00:15:27;;;;;;;6.93;2.15;;;9.00;99.90;;;;;;5003994;28;20086;-74
2023/03/20 00:17:53;;;;;;;8.40;2.40;;;9.00;99.90;;;;;;5017331;28;20038;-74
2023/03/20 00:20:19;;;;;;;11.02;3.50;;;9.00;99.90;;;;;;5001330;28;20029;-74
2023/03/20 00:22:44;;;;;;;11.55;3.10;;;9.00;99.90;;;;;;5002246;28;20057;-74
2023/03/20 00:25:22;;;;;;;11.65;3.50;;;9.00;99.90;;;;;;5003365;28;20112;-74
2023/03/20 00:27:51;;;;;;;14.60;4.20;;;9.00;99.90;;;;;;5001584;28;20038;-74
2023/03/20 00:30:23;;;;;;;8.52;3.05;;;9.00;99.90;;;;;;4999688;28;20033;-72
2023/03/20 00:32:50;;;;;;;13.13;3.33;;;9.00;99.90;;;;;;5001426;28;20037;-74
2023/03/20 00:35:26;;;;;;;9.82;2.67;;;9.00;99.90;;;;;;5000624;28;20065;-75
2023/03/20 00:37:53;;;;;;;6.95;2.70;;;9.00;99.90;;;;;;5002801;28;20046;-72
2023/03/20 00:40:20;;;;;;;10.82;3.15;;;9.00;99.90;;;;;;4996262;28;20042;-73
2023/03/20 00:42:58;;;;;;;7.97;2.33;;;8.90;99.90;;;;;;5001691;28;20042;-72
2023/03/20 00:45:24;;;;;;;9.90;2.80;;;8.90;99.90;;;;;;5001265;28;20096;-71
2023/03/20 00:47:51;;;;;;;6.47;2.20;;;8.90;99.90;;;;;;5002335;28;20026;-72
2023/03/20 00:50:23;;;;;;;4.93;2.30;;;8.90;99.90;;;;;;4998809;28;20026;-71
2023/03/20 00:52:50;;;;;;;5.78;2.03;;;8.90;99.90;;;;;;5002412;28;20041;-74
2023/03/20 00:55:19;;;;;;;4.85;2.28;;;8.90;99.90;;;;;;4999523;28;20125;-72
2023/03/20 00:57:48;;;;;;;3.78;1.77;;;8.90;99.90;;;;;;5021933;28;20022;-71
2023/03/20 01:00:29;;;;;;;9.20;2.30;;;8.90;99.90;;;;;;5006692;28;20124;-71
2023/03/20 01:02:56;;;;;;;;;;;8.90;99.90;;;;;;5022511;28;20037;-71
2023/03/20 01:05:22;;;;;;;8.60;3.10;;;8.80;99.90;;;;;;5006366;28;19913;-72
2023/03/20 01:07:48;;;;;;;11.45;2.92;;;8.80;99.90;;;;;;5014175;28;20030;-72
2023/03/20 01:10:15;;;;;;;6.35;2.13;;;8.80;99.90;;;;;;5005961;28;20022;-71
2023/03/20 01:12:42;;;;;;;12.40;2.40;;;8.70;99.90;;;;;;5006232;28;20038;-71
2023/03/20 01:15:31;;;;;;;10.82;2.95;;;8.70;99.90;;;;;;5005429;28;20034;-72
2023/03/20 01:17:56;;;;;;;9.23;2.67;;;8.70;99.90;;;;;;5021703;28;20501;-71
2023/03/20 01:20:26;;;;;;;11.45;2.92;;;8.70;99.90;;;;;;5006029;28;20022;-73
2023/03/20 01:22:53;;;;;;;8.68;3.47;;;8.60;99.90;;;;;;5006545;28;20069;-71
2023/03/20 01:25:19;;;;;;;10.45;3.08;;;8.60;99.90;;;;;;5025405;28;20026;-71
2023/03/20 01:27:50;;;;;;;12.80;2.70;;;8.60;99.90;;;;;;5006419;28;20041;-71
2023/03/20 01:30:25;;;;;;;7.50;2.75;;;8.60;99.90;;;;;;5004771;28;20026;-71
2023/03/20 01:32:50;;;;;;;5.95;2.97;;;8.50;99.90;;;;;;4996693;28;20049;-71
2023/03/20 01:35:20;;;;;;;10.93;2.67;;;8.50;99.90;;;;;;5002476;28;20030;-73
2023/03/20 01:37:52;;;;;;;10.97;2.97;;;8.50;99.90;;;;;;4998458;28;20034;-73
2023/03/20 01:40:29;;;;;;;10.38;3.10;;;8.50;99.90;;;;;;5005497;28;20334;-71
2023/03/20 01:42:55;;;;;;;7.78;3.00;;;8.40;99.90;;;;;;5006253;28;20477;-73
2023/03/20 01:45:32;;;;;;;9.75;3.30;;;8.30;99.90;;;;;;5005975;28;20105;-72
2023/03/20 01:47:58;;;;;;;13.68;3.38;;;8.30;99.90;;;;;;5002492;28;20038;-72
2023/03/20 01:50:32;;;;;;;9.25;3.45;;;8.30;99.90;;;;;;5002145;28;20037;-72
2023/03/20 01:53:21;;;;;;;11.30;3.42;;;8.20;99.90;;;;;;5003036;28;20034;-76
2023/03/20 01:55:55;;;;;;;10.25;3.97;;;8.10;99.90;;;;;;5005657;28;20082;-73
2023/03/20 01:58:27;;;;;;;12.63;3.38;;;8.10;99.90;;;;;;4998747;28;20041;-71
2023/03/20 02:00:53;;;;;;;10.20;3.70;;;8.00;99.90;;;;;;4997660;28;20040;-71
2023/03/20 02:03:20;;;;;;;9.38;3.63;;;8.00;99.90;;;;;;5003173;28;20141;-71
2023/03/20 02:05:47;;;;;;;11.82;4.57;;;8.00;99.90;;;;;;5005054;28;20030;-74
2023/03/20 02:08:16;;;;;;;14.20;3.58;;;8.10;99.90;;;;;;5004679;28;20403;-71
2023/03/20 02:10:44;;;;;;;15.00;4.43;;;8.10;99.90;;;;;;5006001;28;20115;-75
2023/03/20 02:13:10;;;;;;;10.63;4.20;;;8.10;99.90;;;;;;5003295;28;20076;-71
2023/03/20 02:15:53;;;;;;;14.00;3.83;;;8.10;99.90;;;;;;5005585;28;20438;-72
2023/03/20 02:18:19;;;;;;;17.05;5.07;;;8.10;99.90;;;;;;5008753;28;20052;-71
2023/03/20 02:21:14;;;;;;;13.00;3.85;;;8.10;99.90;;;;;;5005274;28;20522;-71
2023/03/20 02:24:00;;;;;;;12.43;4.40;;;8.10;99.90;;;;;;5005235;28;20041;-71
2023/03/20 02:26:57;;;;;;;10.18;3.95;;;8.00;99.90;;;;;;5005586;28;20044;-75
2023/03/20 02:29:52;;;;;;;13.57;4.18;;;8.00;99.90;;;;;;5004911;28;20034;-71
2023/03/20 02:33:03;;;;;;;20.63;4.95;;;8.10;99.90;;;;;;5000542;28;20041;-72
2023/03/20 02:35:44;;;;;;;11.13;4.55;;;8.00;99.90;;;;;;5004832;28;20100;-72
2023/03/20 02:38:25;;;;;;;18.55;5.53;;;8.00;99.90;;;;;;5005284;28;20037;-73
2023/03/20 02:41:13;;;;;;;10.82;4.95;;;8.00;99.90;;;;;;5003472;28;20037;-72
2023/03/20 02:43:56;;;;;;;19.83;6.07;;;8.00;99.90;;;;;;5003337;28;20046;-71
2023/03/20 02:46:31;;;;;;;15.60;5.07;;;7.90;99.90;;;;;;5005444;28;20062;-71
2023/03/20 02:49:21;;;;;;;17.42;5.65;;;8.00;99.90;;;;;;4996570;28;20149;-72
2023/03/20 02:52:08;;;;;;;16.65;6.72;;;7.90;99.90;;;;;;5004065;28;22286;-71
2023/03/20 02:54:47;;;;;;;15.68;5.57;;;7.90;99.90;;;;;;5004621;28;20048;-71
2023/03/20 02:57:25;;;;;;;17.60;5.70;;;7.90;99.90;;;;;;5011894;28;20029;-73
2023/03/20 03:00:10;;;;;;;26.25;7.03;;;7.90;99.90;;;;;;4995296;28;20037;-72
2023/03/20 03:02:50;;;;;;;24.42;6.30;;;7.80;99.90;;;;;;5004288;28;20037;-71
2023/03/20 03:05:29;;;;;;;16.73;5.88;;;7.80;99.90;;;;;;5005106;28;20482;-72
2023/03/20 03:07:59;;;;;;;16.65;6.03;;;7.80;99.90;;;;;;4997646;28;20033;-71
2023/03/20 03:10:30;;;;;;;26.50;7.00;;;7.70;99.90;;;;;;5003537;28;20034;-71
2023/03/20 03:12:59;;;;;;;13.52;6.03;;;7.80;99.90;;;;;;4997875;28;20045;-72
2023/03/20 03:15:40;;;;;;;19.77;6.40;;;7.70;99.90;;;;;;5004875;28;20045;-72
2023/03/20 03:18:13;;;;;;;16.27;6.65;;;7.70;99.90;;;;;;5004834;28;20394;-73
2023/03/20 03:20:39;;;;;;;25.98;6.88;;;7.70;99.90;;;;;;5004514;28;20068;-71
2023/03/20 03:23:06;;;;;;;14.52;5.72;;;7.60;99.90;;;;;;4991088;28;20143;-72
2023/03/20 03:25:37;;;;;;;25.10;7.68;;;7.60;99.90;;;;;;5000660;28;20029;-71
2023/03/20 03:28:12;;;;;;;20.60;6.55;;;7.60;99.90;;;;;;5005178;28;20030;-73
2023/03/20 03:30:38;;;;;;;18.92;6.18;;;7.60;99.90;;;;;;5008424;28;20040;-71
2023/03/20 03:33:36;;;;;;;20.42;7.05;;;7.60;99.90;;;;;;5008650;28;20026;-73
2023/03/20 03:36:04;;;;;;;21.27;7.07;;;7.60;99.90;;;;;;4997566;28;20033;-74
2023/03/20 03:38:36;;;;;;;18.33;6.78;;;7.50;99.90;;;;;;5006945;28;20104;-71
2023/03/20 03:41:17;;;;;;;17.00;6.05;;;7.60;99.90;;;;;;5008370;28;20609;-74
2023/03/20 03:43:47;;;;;;;13.05;6.03;;;7.60;99.90;;;;;;5008333;28;20529;-71
2023/03/20 03:46:21;;;;;;;16.95;6.55;;;7.60;99.90;;;;;;5008082;28;20675;-70
2023/03/20 03:48:52;;;;;;;19.77;6.65;;;7.60;99.90;;;;;;5007702;28;20530;-73
2023/03/20 03:51:22;;;;;;;12.82;6.43;;;7.60;99.90;;;;;;5008063;28;20041;-71
2023/03/20 03:53:53;;;;;;;;;;;7.60;99.90;;;;;;5006975;28;20073;-72
2023/03/20 03:56:22;;;;;;;16.17;6.40;;;7.60;99.90;;;;;;5008286;28;20011;-72
2023/03/20 03:58:53;;;;;;;23.53;6.77;;;7.60;99.90;;;;;;5007956;28;20367;-71
2023/03/20 04:01:21;;;;;;;15.57;6.20;;;7.50;99.90;;;;;;5007844;28;20041;-74
2023/03/20 04:03:51;;;;;;;15.90;6.50;;;7.50;99.90;;;;;;5007879;28;20050;-74
2023/03/20 04:06:18;;;;;;;17.93;5.00;;;7.50;99.90;;;;;;5008625;28;20026;-71
2023/03/20 04:08:43;;;;;;;16.33;5.93;;;7.50;99.90;;;;;;5005864;28;20280;-71
2023/03/20 04:11:15;;;;;;;18.30;5.53;;;7.50;99.90;;;;;;5007522;28;20022;-72
2023/03/20 04:13:41;;;;;;;14.27;5.38;;;7.50;99.90;;;;;;5007832;28;20042;-72
2023/03/20 04:16:12;;;;;;;15.70;5.70;;;7.50;99.90;;;;;;5008946;28;20088;-72
2023/03/20 04:18:38;;;;;;;16.73;5.75;;;7.50;99.90;;;;;;5008855;28;20069;-72
2023/03/20 04:21:05;;;;;;;17.95;5.47;;;7.50;99.90;;;;;;5007629;28;20057;-72
2023/03/20 04:23:31;;;;;;;16.48;4.88;;;7.40;99.90;;;;;;5005706;28;20533;-72
2023/03/20 04:25:56;;;;;;;12.98;5.43;;;7.50;99.90;;;;;;5007189;28;20072;-71
2023/03/20 04:28:22;;;;;;;13.60;5.22;;;7.40;99.90;;;;;;5027135;28;20038;-72
2023/03/20 04:30:52;;;;;;;22.48;6.07;;;7.40;99.90;;;;;;5007211;28;20081;-71
2023/03/20 04:33:18;;;;;;;11.70;4.80;;;7.50;99.90;;;;;;5006101;28;20061;-71
2023/03/20 04:35:43;;;;;;;10.90;5.18;;;7.50;99.90;;;;;;5007222;28;20065;-71
2023/03/20 04:38:09;;;;;;;16.25;5.40;;;7.40;99.90;;;;;;5007281;28;20041;-72
2023/03/20 04:40:35;;;;;;;12.30;4.90;;;7.40;99.90;;;;;;5004092;28;20073;-72
2023/03/20 04:43:00;;;;;;;13.27;5.30;;;7.40;99.90;;;;;;5008964;28;20506;-72
2023/03/20 04:45:26;;;;;;;15.00;5.13;;;7.40;99.90;;;;;;5007405;28;20121;-74
2023/03/20 04:47:51;;;;;;;14.18;6.57;;;7.40;99.90;;;;;;5007172;28;20064;-72
2023/03/20 04:50:17;;;;;;;11.18;5.72;;;7.40;99.90;;;;;;5007011;28;20033;-71
2023/03/20 04:52:42;;;;;;;23.77;8.30;;;7.40;99.90;;;;;;5006871;28;20096;-71
2023/03/20 04:55:08;;;;;;;16.42;5.25;;;7.40;99.90;;;;;;5006786;28;20042;-71
2023/03/20 04:57:34;;;;;;;14.13;6.32;;;7.40;99.90;;;;;;5007214;28;20066;-73
2023/03/20 04:59:59;;;;;;;17.05;5.68;;;7.30;99.90;;;;;;5007129;28;20073;-73
2023/03/20 05:02:28;;;;;;;14.40;6.60;;;7.40;99.90;;;;;;5004928;28;20033;-72
2023/03/20 05:04:54;;;;;;;17.70;5.65;;;7.40;99.90;;;;;;5020220;28;20038;-73
2023/03/20 05:07:20;;;;;;;18.83;5.90;;;7.40;99.90;;;;;;5007189;28;20034;-71
2023/03/20 05:09:45;;;;;;;10.35;5.63;;;7.40;99.90;;;;;;5003613;28;20034;-71
2023/03/20 05:12:12;;;;;;;15.95;5.63;;;7.40;99.90;;;;;;5004146;28;20034;-72
2023/03/20 05:14:37;;;;;;;21.05;6.63;;;7.50;99.90;;;;;;5005961;28;20069;-71
2023/03/20 05:17:03;;;;;;;17.83;6.28;;;7.50;99.90;;;;;;5011105;28;20029;-74
2023/03/20 05:19:29;;;;;;;14.60;5.93;;;7.50;99.90;;;;;;5003532;28;20041;-72
2023/03/20 05:21:54;;;;;;;13.85;5.50;;;7.50;99.90;;;;;;5004392;28;20516;-72
2023/03/20 05:24:21;;;;;;;17.27;6.68;;;7.50;99.90;;;;;;5001661;28;20096;-73
2023/03/20 05:26:46;;;;;;;17.80;5.68;;;7.50;99.90;;;;;;4999852;28;20037;-72
2023/03/20 05:29:12;;;;;;;15.95;5.20;;;7.40;99.90;;;;;;5001003;28;20041;-73
2023/03/20 05:31:38;;;;;;;11.80;6.00;;;7.40;99.90;;;;;;4995569;28;20441;-73
2023/03/20 05:34:04;;;;;;;10.50;5.63;;;7.50;99.90;;;;;;5000956;28;20088;-75
2023/03/20 05:36:30;;;;;;;15.98;5.68;;;7.50;99.90;;;;;;5000323;28;20041;-72
2023/03/20 05:38:56;;;;;;;10.50;5.32;;;7.40;99.90;;;;;;5000351;28;20079;-72
2023/03/20 05:41:25;;;;;;;20.80;6.78;;;7.40;99.90;;;;;;4998412;28;21943;-72
2023/03/20 05:43:51;;;;;;;13.95;5.80;;;7.40;99.90;;;;;;4999384;28;20125;-72
2023/03/20 05:46:16;;;;;;;18.00;6.18;;;7.50;99.90;;;;;;5008829;28;20145;-73
2023/03/20 05:48:42;;;;;;;17.67;6.20;;;7.40;99.90;;;;;;5006273;28;20041;-72
2023/03/20 05:51:11;;;;;;;14.20;5.70;;;7.40;99.90;;;;;;4999803;28;20033;-76
2023/03/20 05:53:36;;;;;;;15.60;5.63;;;7.40;99.90;;;;;;5001229;28;20073;-71
2023/03/20 05:56:02;;;;;;;12.70;5.40;;;7.40;99.90;;;;;;5000599;28;20064;-73
2023/03/20 05:58:28;;;;;;;16.25;5.65;;;7.40;99.90;;;;;;4998762;28;20706;-73
2023/03/20 06:00:55;;;;;;;14.43;5.60;;;7.40;99.90;;;;;;5002842;28;20940;-72
2023/03/20 06:03:21;;;;;;;20.35;6.28;;;7.50;99.90;;;;;;5003290;28;20449;-74
2023/03/20 06:05:46;;;;;;;11.15;5.60;;;7.50;99.90;;;;;;4999048;28;20088;-74
2023/03/20 06:08:12;;;;;;;13.82;4.70;;;7.50;99.90;;;;;;5001275;28;20037;-74
2023/03/20 06:10:41;;;;;;;16.52;6.28;;;7.50;99.90;;;;;;4995522;28;20072;-74
2023/03/20 06:13:06;;;;;;;15.98;5.65;;;7.50;99.90;;;;;;5018138;28;20111;-75
2023/03/20 06:15:32;;;;;;;17.80;5.28;;;7.50;99.90;;;;;;5000657;28;20137;-73
2023/03/20 06:17:58;;;;;;;11.40;5.15;;;7.50;99.90;;;;;;5021371;28;20430;-73
2023/03/20 06:20:24;;;;;;;15.20;6.40;;;7.50;99.90;;;;;;4996721;28;20506;-74
2023/03/20 06:22:50;;;;;;;18.52;6.80;;;7.50;99.90;;;;;;4995807;28;20046;-73
2023/03/20 06:25:15;;;;;;;11.05;4.32;;;7.50;99.90;;;;;;4997767;28;20498;-73
2023/03/20 06:27:41;;;;;;;9.80;4.38;;;7.50;99.90;;;;;;4993905;28;20480;-73
2023/03/20 06:30:08;;;;;;;16.35;5.07;;;7.60;99.90;;;;;;4995247;28;20402;-72
2023/03/20 06:32:33;;;;;;;14.88;5.65;;;7.60;99.90;;;;;;5000795;28;20064;-74
2023/03/20 06:34:59;;;;;;;16.08;4.72;;;7.60;99.90;;;;;;4997499;28;20026;-73
2023/03/20 06:37:24;;;;;;;25.25;5.97;;;7.60;99.90;;;;;;4994645;28;20052;-73
2023/03/20 06:39:50;;;;;;;12.93;5.47;;;7.60;99.90;;;;;;4995123;28;20075;-72
2023/03/20 06:42:16;;;;;;;15.32;5.32;;;7.60;99.90;;;;;;4995095;28;20042;-73
2023/03/20 06:44:42;;;;;;;15.10;5.53;;;7.60;99.90;;;;;;4996434;28;20038;-73
2023/03/20 06:47:07;;;;;;;10.15;4.50;;;7.60;99.90;;;;;;4995499;28;20042;-73
2023/03/20 06:49:33;;;;;;;12.18;4.40;;;7.60;99.90;;;;;;4997842;28;20038;-72
2023/03/20 06:51:58;;;;;;;11.52;4.78;;;7.60;99.90;;;;;;4996447;28;20050;-73
2023/03/20 06:54:25;;;;;;;11.85;4.40;;;7.60;99.90;;;;;;4996118;28;20053;-73
2023/03/20 06:56:51;;;;;;;10.52;4.45;;;7.60;99.90;;;;;;4994894;28;20138;-73
2023/03/20 06:59:16;;;;;;;13.65;4.70;;;7.60;99.90;;;;;;4995851;28;20496;-74
2023/03/20 07:01:42;;;;;;;19.67;5.25;;;7.60;99.90;;;;;;4993705;28;20618;-72
2023/03/20 07:04:08;;;;;;;9.90;4.78;;;7.60;99.90;;;;;;4996192;28;20151;-75
2023/03/20 07:06:33;;;;;;;15.35;5.38;;;7.60;99.90;;;;;;5002608;28;20041;-72
2023/03/20 07:09:00;;;;;;;16.73;5.15;;;7.70;99.90;;;;;;4996763;28;22398;-73
2023/03/20 07:11:29;;;;;;;11.40;3.83;;;7.70;99.90;;;;;;5023322;28;20498;-73
2023/03/20 07:13:55;;;;;;;15.15;5.03;;;7.80;99.90;;;;;;4996383;28;20082;-73
2023/03/20 07:16:21;;;;;;;18.38;5.10;;;7.80;99.90;;;;;;4995019;28;20037;-75
2023/03/20 07:18:46;;;;;;;14.55;4.72;;;7.80;99.90;;;;;;4993284;28;20050;-74
2023/03/20 07:21:17;;;;;;;15.23;4.35;;;7.80;99.90;;;;;;4997640;28;20115;-73
2023/03/20 07:23:43;;;;;;;12.57;5.43;;;7.80;99.90;;;;;;4992118;28;20100;-72
2023/03/20 07:26:08;;;;;;;12.02;4.68;;;7.80;99.90;;;;;;4997829;28;20426;-73
2023/03/20 07:28:34;;;;;;;10.25;3.78;;;7.80;99.90;;;;;;4993346;28;20088;-73
2023/03/20 07:31:00;;;;;;;13.48;3.95;;;7.90;99.90;;;;;;4998942;28;20022;-74
2023/03/20 07:33:25;;;;;;;14.10;4.38;;;7.90;99.90;;;;;;4992574;28;20177;-73
2023/03/20 07:35:52;;;;;;;15.40;5.30;;;7.90;99.90;;;;;;4993065;28;20502;-73
2023/03/20 07:38:22;;;;;;;14.70;4.28;;;8.00;99.90;;;;;;4994428;28;20072;-74
2023/03/20 07:40:53;;;;;;;13.18;4.03;;;8.10;99.90;;;;;;4992262;28;20042;-73
2023/03/20 07:43:19;;;;;;;17.50;5.63;;;8.10;99.90;;;;;;4994434;28;20050;-73
2023/03/20 07:45:45;;;;;;;11.18;4.50;;;8.10;99.90;;;;;;4992451;28;20499;-72
2023/03/20 07:48:11;;;;;;;22.08;5.15;;;8.10;99.90;;;;;;4996760;28;20042;-72
2023/03/20 07:50:36;;;;;;;10.43;4.22;;;8.20;99.90;;;;;;4991552;28;20121;-73
2023/03/20 07:53:02;;;;;;;18.48;4.40;;;8.20;99.90;;;;;;4994689;28;20046;-73
2023/03/20 07:55:27;;;;;;;9.60;3.78;;;8.20;99.90;;;;;;5018208;28;20022;-72
2023/03/20 07:57:53;;;;;;;11.63;4.13;;;8.20;99.90;;;;;;5002552;28;20122;-73
2023/03/20 08:00:19;;;;;;;9.88;3.75;;;8.20;99.90;;;;;;5002838;28;20104;-72
2023/03/20 08:02:45;;;;;;;22.05;4.32;;;8.20;99.90;;;;;;5020972;28;20675;-74
2023/03/20 08:05:11;;;;;;;12.80;4.10;;;8.30;99.90;;;;;;5000911;28;20034;-73
2023/03/20 08:07:36;;;;;;;8.95;3.67;;;8.30;99.90;;;;;;5003552;28;20034;-73
2023/03/20 08:10:03;;;;;;;17.40;4.97;;;8.40;99.90;;;;;;5000648;28;20062;-73
2023/03/20 08:12:28;;;;;;;8.23;3.63;;;8.40;99.90;;;;;;5001911;28;20141;-72
2023/03/20 08:14:54;;;;;;;10.23;3.58;;;8.50;99.90;;;;;;5001537;28;20121;-72
2023/03/20 08:17:20;;;;;;;14.27;3.40;;;8.50;99.90;;;;;;5005287;28;20042;-74
2023/03/20 08:19:46;;;;;;;17.13;3.63;;;8.60;99.90;;;;;;5002932;28;20041;-72
2023/03/20 08:22:12;;;;;;;12.05;3.92;;;8.60;99.90;;;;;;5005637;28;20069;-72
2023/03/20 08:24:37;;;;;;;14.23;4.60;;;8.60;99.90;;;;;;5005006;28;20490;-74
2023/03/20 08:27:03;;;;;;;15.98;4.18;;;8.50;99.90;;;;;;5004515;28;20042;-75
2023/03/20 08:29:29;;;;;;;16.60;3.38;;;8.50;99.90;;;;;;5005113;28;20704;-73
2023/03/20 08:31:55;;;;;;;12.10;3.85;;;8.50;99.90;;;;;;5002145;28;20038;-73
2023/03/20 08:34:20;;;;;;;15.23;3.45;;;8.50;99.90;;;;;;5005635;28;20041;-73
2023/03/20 08:36:46;;;;;;;12.02;3.13;;;8.40;99.90;;;;;;5024678;28;20083;-72
2023/03/20 08:39:11;;;;;;;9.98;3.35;;;8.40;99.90;;;;;;5004224;28;20060;-73
2023/03/20 08:41:38;;;;;;;14.07;4.13;;;8.40;99.90;;;;;;5004117;28;20034;-73
2023/03/20 08:44:04;;;;;;;14.95;3.55;;;8.40;99.90;;;;;;5003230;28;20521;-74
2023/03/20 08:46:30;;;;;;;10.02;3.40;;;8.40;99.90;;;;;;5004638;28;20034;-73
2023/03/20 08:48:57;;;;;;;13.68;3.65;;;8.30;99.90;;;;;;5002588;28;20632;-74
2023/03/20 08:51:23;;;;;;;23.33;4.32;;;8.30;99.90;;;;;;5002279;28;20053;-73
2023/03/20 08:53:52;;;;;;;14.68;4.20;;;8.30;99.90;;;;;;5002424;28;20083;-72
2023/03/20 08:56:18;;;;;;;9.75;3.95;;;8.20;99.90;;;;;;5000768;28;20525;-74
2023/03/20 08:58:43;;;;;;;14.13;3.70;;;8.10;99.90;;;;;;5000803;28;20054;-73
2023/03/20 09:01:09;;;;;;;12.93;4.10;;;8.20;99.90;;;;;;5006133;28;20035;-74
2023/03/20 09:03:35;;;;;;;14.00;4.25;;;8.10;99.90;;;;;;5004535;28;20041;-74
2023/03/20 09:06:06;;;;;;;15.57;3.88;;;8.10;99.90;;;;;;5005592;28;20208;-74
2023/03/20 09:08:32;;;;;;;13.27;4.00;;;8.10;99.90;;;;;;5003517;28;20044;-73
2023/03/20 09:10:57;;;;;;;11.32;3.53;;;8.10;99.90;;;;;;5001601;28;20039;-74
2023/03/20 09:13:24;;;;;;;22.95;4.53;;;8.10;99.90;;;;;;5002953;28;20038;-72
2023/03/20 09:15:50;;;;;;;17.90;3.78;;;8.20;99.90;;;;;;5001026;28;20068;-74
2023/03/20 09:18:18;;;;;;;10.18;3.50;;;8.30;99.90;;;;;;5000899;28;20092;-73
2023/03/20 09:20:45;;;;;;;10.48;4.57;;;8.30;99.90;;;;;;5001182;28;20064;-73
2023/03/20 09:23:11;;;;;;;10.48;3.92;;;8.40;99.90;;;;;;5000332;28;20525;-73
2023/03/20 09:25:36;;;;;;;14.60;3.70;;;8.50;99.90;;;;;;5001256;28;20030;-73
2023/03/20 09:28:05;;;;;;;10.57;4.40;;;8.50;99.90;;;;;;5001072;28;20121;-75
2023/03/20 09:30:31;;;;;;;12.82;3.45;;;8.60;99.90;;;;;;5001343;28;20034;-75
2023/03/20 09:32:56;;;;;;;7.88;2.88;;;8.60;99.90;;;;;;5000593;28;20035;-73
2023/03/20 09:35:22;;;;;;;11.88;3.05;;;8.70;99.90;;;;;;5001780;28;20065;-74
2023/03/20 09:37:48;;;;;;;10.00;3.13;;;8.70;99.90;;;;;;4999650;28;20026;-73
2023/03/20 09:40:25;;;;;;;10.30;2.55;;;8.70;99.90;;;;;;5001451;28;20030;-73
2023/03/20 09:43:14;;;;;;;13.25;3.53;;;8.70;99.90;;;;;;4999634;28;20034;-74
2023/03/20 09:45:44;;;;;;;12.52;4.53;;;8.70;99.90;;;;;;4996022;28;20399;-73
2023/03/20 09:48:51;;;;;;;10.38;3.05;;;8.80;99.90;;;;;;5000697;28;20120;-72
2023/03/20 09:51:25;;;;;;;10.68;3.30;;;8.80;99.90;;;;;;4998611;28;20394;-75
2023/03/20 09:54:20;;;;;;;9.93;2.65;;;8.80;99.90;;;;;;4998731;28;20049;-73
2023/03/20 09:56:45;;;;;;;14.40;4.05;;;8.90;99.90;;;;;;4996618;28;20033;-73
2023/03/20 09:59:14;;;;;;;8.43;4.28;;;9.00;99.90;;;;;;4999858;28;20505;-73
2023/03/20 10:02:02;;;;;;;15.70;4.18;;;9.10;99.90;;;;;;4999476;28;20046;-72
2023/03/20 10:04:29;;;;;;;13.05;2.90;;;9.10;99.90;;;;;;5002195;28;20096;-72
2023/03/20 10:06:58;;;;;;;11.93;3.70;;;9.10;99.90;;;;;;5004287;28;20702;-72
2023/03/20 10:09:26;;;;;;;8.93;3.35;;;9.10;99.90;;;;;;4999353;28;20041;-74
2023/03/20 10:12:07;;;;;;;15.40;3.05;;;9.20;99.90;;;;;;4997494;28;20049;-75
2023/03/20 10:14:52;;;;;;;14.80;3.95;;;9.20;99.90;;;;;;5012203;28;20557;-73
2023/03/20 10:17:34;;;;;;;11.40;3.33;;;9.30;99.90;;;;;;5000706;28;20022;-74
2023/03/20 10:20:08;;;;;;;13.90;4.18;;;9.40;99.90;;;;;;4996930;28;20061;-73
2023/03/20 10:22:38;;;;;;;12.60;3.08;;;9.40;99.90;;;;;;4996553;28;20034;-74
2023/03/20 10:25:21;;;;;;;7.90;2.97;;;9.40;99.90;;;;;;4998401;28;20034;-75
2023/03/20 10:28:04;;;;;;;10.65;3.03;;;9.40;99.90;;;;;;4997144;28;20034;-74
2023/03/20 10:30:32;;;;;;;10.32;3.40;;;9.40;99.90;;;;;;4999052;28;20061;-73
2023/03/20 10:32:58;;;;;;;13.68;3.80;;;9.40;99.90;;;;;;5018733;28;20133;-70
2023/03/20 10:35:46;;;;;;;10.30;3.70;;;9.40;99.90;;;;;;4997155;28;20133;-74
2023/03/20 10:38:30;;;;;;;7.82;3.30;;;9.40;99.90;;;;;;4996022;28;20045;-73
2023/03/20 10:40:57;;;;;;;13.07;3.92;;;9.40;99.90;;;;;;5020697;28;20033;-74
2023/03/20 10:43:28;;;;;;;16.92;3.53;;;9.40;99.90;;;;;;4996843;28;20049;-73
2023/03/20 10:46:06;;;;;;;12.02;4.13;;;9.30;99.90;;;;;;4995614;28;20034;-76
2023/03/20 10:48:41;;;;;;;15.05;4.43;;;9.30;99.90;;;;;;4997212;28;20474;-74
2023/03/20 10:51:20;;;;;;;11.38;4.03;;;9.40;99.90;;;;;;4996276;28;20114;-73
2023/03/20 10:53:56;;;;;;;8.18;3.92;;;9.40;99.90;;;;;;4994656;28;20065;-74
2023/03/20 10:56:35;;;;;;;15.80;4.75;;;9.40;99.90;;;;;;4998270;28;20046;-74
2023/03/20 10:59:20;;;;;;;11.05;4.55;;;9.40;99.90;;;;;;4996166;28;20036;-73
2023/03/20 11:01:46;;;;;;;11.68;4.25;;;9.40;99.90;;;;;;4996406;28;20038;-70
2023/03/20 11:04:17;;;;;;;12.50;4.60;;;9.30;99.90;;;;;;4996690;28;20038;-73
2023/03/20 11:07:22;;;;;;;15.70;5.20;;;9.30;99.90;;;;;;5004106;28;20046;-75
2023/03/20 11:10:10;;;;;;;15.75;6.03;;;9.30;99.90;;;;;;4986279;28;20038;-75
2023/03/20 11:12:44;;;;;;;16.80;5.18;;;9.40;99.90;;;;;;4994843;28;20034;-70
2023/03/20 11:15:21;;;;;;;15.50;4.88;;;9.40;99.90;;;;;;4998715;28;20053;-73
2023/03/20 11:17:58;;;;;;;24.73;5.90;;;9.50;99.90;;;;;;4996687;28;20037;-73
2023/03/20 11:20:32;;;;;;;14.52;4.88;;;9.50;99.90;;;;;;4997935;28;20574;-76
2023/03/20 11:23:03;;;;;;;13.57;5.85;;;9.60;99.90;;;;;;4992596;28;20121;-76
2023/03/20 11:25:32;;;;;;;18.52;5.63;;;9.70;99.90;;;;;;4999280;28;20063;-74
2023/03/20 11:28:35;;;;;;;20.38;6.18;;;9.70;99.90;;;;;;4992199;28;20038;-76
2023/03/20 11:31:14;;;;;;;18.27;5.32;;;9.70;99.90;;;;;;4987569;28;20101;-74
2023/03/20 11:33:44;;;;;;;16.25;5.45;;;9.80;99.90;;;;;;4994783;28;20060;-74
2023/03/20 11:36:20;;;;;;;10.93;5.67;;;9.80;99.90;;;;;;5008447;28;20149;-73
2023/03/20 11:38:46;;;;;;;12.85;5.10;;;9.80;99.90;;;;;;4994211;28;20296;-74
2023/03/20 11:41:26;;;;;;;16.90;5.57;;;9.80;99.90;;;;;;4992673;28;20043;-75
2023/03/20 11:43:52;;;;;;;14.82;6.28;;;9.80;99.90;;;;;;4991252;28;20069;-74
2023/03/20 11:46:23;;;;;;;25.67;7.20;;;9.80;99.90;;;;;;5008769;28;20430;-72
2023/03/20 11:49:04;;;;;;;19.02;7.20;;;9.80;99.90;;;;;;4994071;28;20114;-74
2023/03/20 11:51:30;;;;;;;19.23;6.63;;;9.70;99.90;;;;;;4999675;28;20105;-73
2023/03/20 11:53:59;;;;;;;17.65;5.35;;;9.70;99.90;;;;;;4999354;28;20037;-73
2023/03/20 11:56:27;;;;;;;22.45;6.60;;;9.70;99.90;;;;;;4999902;28;20074;-75
2023/03/20 11:59:07;;;;;;;16.92;6.75;;;9.60;99.90;;;;;;4998987;28;20164;-73
2023/03/20 12:01:47;;;;;;;18.02;6.63;;;9.70;99.90;;;;;;5009887;28;20537;-72
2023/03/20 12:04:19;;;;;;;15.80;6.70;;;9.70;99.90;;;;;;4997296;28;20042;-71
2023/03/20 12:07:19;;;;;;;19.17;6.97;;;9.70;99.90;;;;;;5000498;28;20149;-75
2023/03/20 12:09:55;;;;;;;18.20;6.78;;;9.60;99.90;;;;;;4992422;28;20176;-74
2023/03/20 12:12:48;;;;;;;18.83;6.93;;;9.70;99.90;;;;;;5012715;28;20070;-73
2023/03/20 12:15:26;;;;;;;11.57;5.88;;;9.70;99.90;;;;;;4997012;28;20478;-74
2023/03/20 12:17:59;;;;;;;23.92;6.43;;;9.60;99.90;;;;;;5000720;28;20088;-71
2023/03/20 12:20:31;;;;;;;15.63;6.13;;;9.60;99.90;;;;;;5004224;28;20046;-73
2023/03/20 12:23:00;;;;;;;16.40;6.40;;;9.60;99.90;;;;;;5014894;28;20043;-73
2023/03/20 12:25:36;;;;;;;17.55;6.22;;;9.50;99.90;;;;;;5012368;28;20038;-75
2023/03/20 12:28:10;;;;;;;20.65;6.25;;;9.50;99.90;;;;;;5003554;28;20041;-73
2023/03/20 12:31:02;;;;;;;17.25;5.78;;;9.50;99.90;;;;;;5003389;28;20040;-72
2023/03/20 12:33:55;;;;;;;13.93;6.15;;;9.50;99.90;;;;;;5001413;28;20553;-74
2023/03/20 12:36:37;;;;;;;20.42;6.32;;;9.50;99.90;;;;;;5011976;28;20041;-74
2023/03/20 12:39:05;;;;;;;19.05;5.57;;;9.50;99.90;;;;;;5002924;28;20042;-76
2023/03/20 12:41:34;;;;;;;21.98;6.43;;;9.40;99.90;;;;;;5004714;28;20437;-73
2023/03/20 12:44:02;;;;;;;17.17;6.20;;;9.40;99.90;;;;;;5004688;28;20037;-75
2023/03/20 12:46:41;;;;;;;22.77;5.70;;;9.40;99.90;;;;;;5003126;28;20042;-76
2023/03/20 12:49:16;;;;;;;15.52;5.20;;;9.40;99.90;;;;;;5003825;28;20040;-75
2023/03/20 12:51:56;;;;;;;18.50;5.75;;;9.40;99.90;;;;;;5002745;28;20100;-75
2023/03/20 12:55:08;;;;;;;13.55;5.32;;;9.40;99.90;;;;;;5003933;28;20038;-73
2023/03/20 12:57:47;;;;;;;12.65;6.10;;;9.50;99.90;;;;;;4999569;28;20212;-74
2023/03/20 13:00:30;;;;;;;17.75;5.97;;;9.50;99.90;;;;;;5001423;28;20033;-75
2023/03/20 13:03:12;;;;;;;13.05;5.55;;;9.40;99.90;;;;;;5001326;28;20045;-74
2023/03/20 13:05:52;;;;;;;19.88;6.25;;;9.40;99.90;;;;;;5004086;28;20037;-74
2023/03/20 13:08:40;;;;;;;26.35;5.70;;;9.40;99.90;;;;;;5002961;28;20403;-74